createdAt,value
2022-09-25T00:01:57.092Z,11.75
2022-09-25T00:06:59.725Z,14.25
2022-09-25T00:12:03.858Z,11.00
2022-09-25T00:17:06.502Z,8.50
2022-09-25T00:22:09.119Z,9.50
2022-09-25T00:27:13.153Z,10.25
2022-09-25T00:32:16.127Z,12.00
2022-09-25T00:37:18.718Z,11.75
2022-09-25T00:42:23.826Z,10.50
2022-09-25T00:47:31.803Z,10.25
2022-09-25T00:52:34.562Z,12.25
2022-09-25T00:57:41.688Z,10.50
2022-09-25T01:02:48.173Z,11.00
2022-09-25T01:07:52.921Z,9.00
2022-09-25T01:12:58.885Z,10.00
2022-09-25T01:18:11.927Z,11.75
2022-09-25T01:23:27.518Z,10.25
2022-09-25T01:28:56.777Z,8.75
2022-09-25T01:34:04.839Z,11.50
2022-09-25T01:39:17.743Z,7.75
2022-09-25T01:44:28.739Z,8.25
2022-09-25T01:49:36.278Z,9.25
2022-09-25T01:54:44.695Z,9.50
2022-09-25T01:59:55.236Z,8.00
2022-09-25T02:05:02.315Z,9.50
2022-09-25T02:10:09.879Z,10.00
2022-09-25T02:15:20.218Z,8.00
2022-09-25T02:20:34.073Z,8.75
2022-09-25T02:25:41.415Z,9.00
2022-09-25T02:30:48.518Z,8.75
2022-09-25T02:35:51.221Z,9.75
2022-09-25T02:40:58.951Z,8.50
2022-09-25T02:46:11.756Z,8.25
2022-09-25T02:51:26.939Z,9.50
2022-09-25T02:56:33.652Z,8.50
2022-09-25T03:01:41.770Z,8.25
2022-09-25T03:06:45.232Z,7.50
2022-09-25T03:11:47.901Z,9.75
2022-09-25T03:16:56.193Z,7.75
2022-09-25T03:21:58.944Z,12.00
2022-09-25T03:27:01.600Z,10.50
2022-09-25T03:32:05.559Z,8.00
2022-09-25T03:37:08.206Z,7.75
2022-09-25T03:42:10.770Z,7.50
2022-09-25T03:47:14.746Z,8.75
2022-09-25T03:52:17.450Z,7.00
2022-09-25T03:57:20.214Z,8.00
2022-09-25T04:02:24.233Z,7.25
2022-09-25T04:07:27.369Z,7.50
2022-09-25T04:12:29.972Z,9.25
2022-09-25T04:17:33.896Z,7.75
2022-09-25T04:22:36.524Z,8.75
2022-09-25T04:27:39.306Z,6.00
2022-09-25T04:33:00.992Z,7.50
2022-09-25T04:38:03.721Z,6.75
2022-09-25T04:43:07.567Z,9.00
2022-09-25T04:48:11.550Z,7.75
2022-09-25T04:53:14.296Z,5.50
2022-09-25T04:58:17.021Z,7.00
2022-09-25T05:03:21.066Z,8.25
2022-09-25T05:08:24.219Z,6.00
2022-09-25T05:13:28.035Z,6.25
2022-09-25T05:18:32.038Z,6.25
2022-09-25T05:23:34.634Z,6.50
2022-09-25T05:28:37.263Z,7.50
2022-09-25T05:33:41.347Z,8.75
2022-09-25T05:38:43.920Z,9.25
2022-09-25T05:43:47.704Z,6.00
2022-09-25T05:48:51.706Z,7.00
2022-09-25T05:53:54.230Z,7.00
2022-09-25T05:58:58.520Z,8.00
2022-09-25T06:04:03.024Z,8.00
2022-09-25T06:09:05.788Z,7.00
2022-09-25T06:14:08.649Z,7.00
2022-09-25T06:19:12.590Z,6.50
2022-09-25T06:24:15.247Z,5.50
2022-09-25T06:29:17.835Z,6.00
2022-09-25T06:34:23.018Z,7.00
2022-09-25T06:39:25.748Z,7.00
2022-09-25T06:44:28.382Z,5.00
2022-09-25T06:49:32.304Z,4.25
2022-09-25T06:54:34.902Z,5.50
2022-09-25T06:59:37.533Z,6.50
2022-09-25T07:04:41.579Z,5.50
2022-09-25T07:09:44.172Z,7.25
2022-09-25T07:14:47.528Z,11.00
2022-09-25T07:19:51.522Z,8.50
2022-09-25T07:24:54.190Z,12.75
2022-09-25T07:29:56.824Z,11.50
2022-09-25T07:35:01.508Z,15.50
2022-09-25T07:40:04.240Z,33.60
2022-09-25T07:45:07.852Z,38.00
2022-09-25T07:50:15.398Z,46.80
2022-09-25T07:55:18.851Z,29.60
2022-09-25T08:00:21.492Z,31.20
2022-09-25T08:05:25.690Z,29.00
2022-09-25T08:10:28.341Z,25.00
2022-09-25T08:15:31.187Z,25.20
2022-09-25T08:20:39.735Z,20.75
2022-09-25T08:25:42.392Z,22.25
2022-09-25T08:30:45.096Z,23.00
2022-09-25T08:35:57.154Z,22.75
2022-09-25T08:41:04.919Z,18.50
2022-09-25T08:46:38.178Z,18.00
2022-09-25T08:51:46.951Z,18.50
2022-09-25T08:56:51.583Z,21.75
2022-09-25T09:01:58.512Z,19.75
2022-09-25T09:07:26.343Z,20.00
2022-09-25T09:12:37.314Z,19.00
2022-09-25T09:17:43.468Z,20.50
2022-09-25T09:22:52.700Z,19.00
2022-09-25T09:28:13.331Z,22.00
2022-09-25T09:33:29.390Z,19.50
2022-09-25T09:38:44.319Z,20.75
2022-09-25T09:44:01.854Z,18.50
2022-09-25T09:49:14.830Z,17.50
2022-09-25T09:54:27.527Z,21.75
2022-09-25T09:59:41.026Z,19.25
2022-09-25T10:04:44.999Z,19.50
2022-09-25T10:09:50.173Z,18.25
2022-09-25T10:14:53.199Z,21.00
2022-09-25T10:20:00.787Z,20.50
2022-09-25T10:25:06.475Z,21.00
2022-09-25T10:30:21.666Z,17.50
2022-09-25T10:35:29.332Z,20.25
2022-09-25T10:40:37.957Z,22.00
2022-09-25T10:45:41.590Z,43.40
2022-09-25T10:50:44.834Z,62.20
2022-09-25T10:55:54.676Z,58.40
2022-09-25T11:00:59.599Z,55.60
2022-09-25T11:06:05.254Z,51.20
2022-09-25T11:11:10.482Z,40.40
2022-09-25T11:16:13.158Z,40.20
2022-09-25T11:21:22.300Z,39.20
2022-09-25T11:26:32.267Z,30.20
2022-09-25T11:31:39.606Z,23.80
2022-09-25T11:36:46.206Z,34.60
2022-09-25T11:41:56.769Z,28.60
2022-09-25T11:47:05.237Z,20.00
2022-09-25T11:52:22.755Z,24.00
2022-09-25T11:57:35.274Z,28.80
2022-09-25T12:03:03.464Z,31.20
2022-09-25T12:08:19.144Z,35.20
2022-09-25T12:13:32.159Z,29.40
2022-09-25T12:18:50.234Z,33.00
2022-09-25T12:24:00.755Z,32.20
2022-09-25T12:29:25.985Z,25.00
2022-09-25T12:34:45.271Z,22.50
2022-09-25T12:39:52.885Z,20.25
2022-09-25T12:45:00.780Z,17.50
2022-09-25T12:50:09.162Z,17.50
2022-09-25T12:55:19.079Z,16.25
2022-09-25T13:00:25.785Z,17.75
2022-09-25T13:05:35.023Z,14.00
2022-09-25T13:10:40.785Z,16.00
2022-09-25T13:16:11.137Z,12.75
2022-09-25T13:21:27.343Z,12.50
2022-09-25T13:26:32.256Z,14.00
2022-09-25T13:31:41.219Z,14.75
2022-09-25T13:36:49.920Z,14.00
2022-09-25T13:41:56.305Z,15.25
2022-09-25T13:47:32.129Z,16.75
2022-09-25T13:53:15.593Z,13.50
2022-09-25T13:58:18.932Z,16.75
2022-09-25T14:03:32.197Z,19.00
2022-09-25T14:08:41.104Z,14.00
2022-09-25T14:13:46.310Z,16.00
2022-09-25T14:18:54.830Z,13.75
2022-09-25T14:24:15.893Z,15.25
2022-09-25T14:29:23.080Z,16.25
2022-09-25T14:34:48.888Z,13.00
2022-09-25T14:40:05.124Z,13.50
2022-09-25T14:45:45.815Z,16.25
2022-09-25T14:50:53.188Z,14.50
2022-09-25T14:56:01.595Z,16.50
2022-09-25T15:01:13.764Z,16.25
2022-09-25T15:06:26.151Z,12.75
2022-09-25T15:11:40.851Z,12.00
2022-09-25T15:17:02.048Z,14.75
2022-09-25T15:22:10.976Z,12.50
2022-09-25T15:27:16.986Z,12.75
2022-09-25T15:32:22.861Z,14.75
2022-09-25T15:37:29.285Z,10.50
2022-09-25T15:42:34.006Z,12.25
2022-09-25T15:47:54.578Z,11.25
2022-09-25T15:53:00.191Z,12.50
2022-09-25T15:58:13.908Z,13.00
2022-09-25T16:03:39.054Z,12.25
2022-09-25T16:08:41.994Z,12.25
2022-09-25T16:13:48.497Z,13.25
2022-09-25T16:18:54.310Z,12.75
2022-09-25T16:24:00.510Z,10.75
2022-09-25T16:29:14.734Z,15.25
2022-09-25T16:34:23.839Z,13.00
2022-09-25T16:39:29.705Z,9.25
2022-09-25T16:44:45.044Z,14.50
2022-09-25T16:49:48.773Z,11.75
2022-09-25T16:54:54.153Z,10.00
2022-09-25T16:59:59.032Z,12.75
2022-09-25T17:05:03.528Z,10.00
2022-09-25T17:10:07.076Z,11.50
2022-09-25T17:15:17.056Z,9.50
2022-09-25T17:20:19.745Z,13.00
2022-09-25T17:25:29.799Z,11.25
2022-09-25T17:30:34.079Z,11.00
2022-09-25T17:35:41.332Z,10.00
2022-09-25T17:40:46.200Z,9.50
2022-09-25T17:45:52.772Z,9.50
2022-09-25T17:50:57.568Z,10.75
2022-09-25T17:56:01.712Z,8.00
2022-09-25T18:01:13.920Z,8.75
2022-09-25T18:06:16.736Z,10.25
2022-09-25T18:11:19.322Z,10.00
2022-09-25T18:16:28.464Z,11.00
2022-09-25T18:21:48.781Z,10.75
2022-09-25T18:26:54.420Z,11.00
2022-09-25T18:31:59.079Z,12.00
2022-09-25T18:37:01.711Z,9.50
2022-09-25T18:42:04.799Z,10.75
2022-09-25T18:47:09.013Z,10.00
2022-09-25T18:52:11.699Z,9.50
2022-09-25T18:57:15.128Z,9.25
2022-09-25T19:02:21.450Z,9.25
2022-09-25T19:07:24.828Z,9.00
2022-09-25T19:12:27.441Z,9.25
2022-09-25T19:17:32.007Z,8.00
2022-09-25T19:22:34.561Z,10.00
2022-09-25T19:27:37.122Z,8.00
2022-09-25T19:32:41.165Z,13.50
2022-09-25T19:37:43.828Z,7.75
2022-09-25T19:42:46.927Z,7.50
2022-09-25T19:47:51.025Z,7.50
2022-09-25T19:52:54.640Z,8.75
2022-09-25T19:57:57.248Z,8.25
2022-09-25T20:03:01.307Z,7.00
2022-09-25T20:08:04.543Z,8.75
2022-09-25T20:13:07.258Z,7.50
2022-09-25T20:18:11.195Z,8.00
2022-09-25T20:23:13.793Z,7.00
2022-09-25T20:28:16.335Z,6.00
2022-09-25T20:33:20.263Z,10.50
2022-09-25T20:38:22.858Z,8.25
2022-09-25T20:43:25.572Z,7.75
2022-09-25T20:48:30.939Z,6.00
2022-09-25T20:53:33.975Z,6.50
2022-09-25T20:58:37.805Z,8.00
2022-09-25T21:03:45.143Z,7.00
2022-09-25T21:08:48.088Z,7.50
2022-09-25T21:13:52.295Z,7.50
2022-09-25T21:18:58.209Z,6.75
2022-09-25T21:24:02.169Z,5.75
2022-09-25T21:29:05.805Z,6.75
2022-09-25T21:34:14.255Z,7.50
2022-09-25T21:39:17.041Z,7.00
2022-09-25T21:44:24.102Z,7.50
2022-09-25T21:49:28.054Z,7.75
2022-09-25T21:54:31.167Z,8.00
2022-09-25T21:59:33.827Z,6.75
2022-09-25T22:04:37.880Z,9.00
2022-09-25T22:09:40.513Z,5.33
2022-09-25T22:14:43.260Z,5.75
2022-09-25T22:19:47.170Z,8.00
2022-09-25T22:24:49.752Z,7.25
2022-09-25T22:29:52.367Z,7.50
2022-09-25T22:34:56.330Z,6.00
2022-09-25T22:39:58.900Z,7.75
2022-09-25T22:45:01.512Z,5.75
2022-09-25T22:50:06.431Z,5.33
2022-09-25T22:55:09.648Z,7.00
2022-09-25T23:00:13.219Z,7.75
2022-09-25T23:05:17.977Z,7.00
2022-09-25T23:10:20.771Z,7.00
2022-09-25T23:15:23.477Z,5.00
2022-09-25T23:20:27.567Z,7.50
2022-09-25T23:25:30.472Z,5.00
2022-09-25T23:30:33.728Z,7.00
2022-09-25T23:35:37.666Z,5.00
2022-09-25T23:40:40.427Z,7.00
2022-09-25T23:45:43.079Z,5.00
2022-09-25T23:50:49.638Z,4.75
2022-09-25T23:55:52.285Z,6.00
